sensor_id;sensor_type;location;lat;lon;timestamp;pressure;altitude;pressure_sealevel;temperature;humidity
17209;BME280;8720;48.488;9.202;2024-03-22T00:02:17;97709.44;;;14.99;47.83
17209;BME280;8720;48.488;9.202;2024-03-22T00:04:46;97719.97;;;14.99;47.57
17209;BME280;8720;48.488;9.202;2024-03-22T00:07:13;97710.47;;;14.94;47.64
17209;BME280;8720;48.488;9.202;2024-03-22T00:09:40;97712.38;;;14.89;47.76
17209;BME280;8720;48.488;9.202;2024-03-22T00:12:07;97716.94;;;14.84;47.85
17209;BME280;8720;48.488;9.202;2024-03-22T00:14:34;97716.22;;;14.77;47.63
17209;BME280;8720;48.488;9.202;2024-03-22T00:17:01;97718.16;;;14.72;48.04
17209;BME280;8720;48.488;9.202;2024-03-22T00:19:28;97710.41;;;14.66;47.71
17209;BME280;8720;48.488;9.202;2024-03-22T00:21:56;97707.94;;;14.62;48.06
17209;BME280;8720;48.488;9.202;2024-03-22T00:24:23;97708.94;;;14.56;48.09
17209;BME280;8720;48.488;9.202;2024-03-22T00:26:50;97703.88;;;14.50;48.27
17209;BME280;8720;48.488;9.202;2024-03-22T00:29:17;97707.50;;;14.46;48.06
17209;BME280;8720;48.488;9.202;2024-03-22T00:31:44;97708.44;;;14.43;48.27
17209;BME280;8720;48.488;9.202;2024-03-22T00:34:12;97707.69;;;14.40;48.49
17209;BME280;8720;48.488;9.202;2024-03-22T00:36:38;97710.38;;;14.37;48.30
17209;BME280;8720;48.488;9.202;2024-03-22T00:39:07;97714.88;;;14.33;48.57
17209;BME280;8720;48.488;9.202;2024-03-22T00:41:34;97709.72;;;14.29;48.50
17209;BME280;8720;48.488;9.202;2024-03-22T00:44:01;97711.53;;;14.25;48.60
17209;BME280;8720;48.488;9.202;2024-03-22T00:46:28;97702.06;;;14.20;48.64
17209;BME280;8720;48.488;9.202;2024-03-22T00:48:56;97700.41;;;14.16;48.81
17209;BME280;8720;48.488;9.202;2024-03-22T00:51:22;97695.31;;;14.10;48.75
17209;BME280;8720;48.488;9.202;2024-03-22T00:53:50;97695.34;;;14.08;48.56
17209;BME280;8720;48.488;9.202;2024-03-22T00:56:17;97692.81;;;14.05;48.97
17209;BME280;8720;48.488;9.202;2024-03-22T00:58:45;97688.72;;;13.95;48.95
17209;BME280;8720;48.488;9.202;2024-03-22T01:01:11;97692.16;;;13.97;49.10
17209;BME280;8720;48.488;9.202;2024-03-22T01:03:39;97687.94;;;13.92;48.97
17209;BME280;8720;48.488;9.202;2024-03-22T01:06:06;97678.38;;;13.88;49.14
17209;BME280;8720;48.488;9.202;2024-03-22T01:08:33;97672.38;;;13.83;49.33
17209;BME280;8720;48.488;9.202;2024-03-22T01:10:59;97675.13;;;13.78;49.02
17209;BME280;8720;48.488;9.202;2024-03-22T01:13:34;97667.31;;;13.75;49.15
17209;BME280;8720;48.488;9.202;2024-03-22T01:16:01;97663.03;;;13.73;49.40
17209;BME280;8720;48.488;9.202;2024-03-22T01:18:28;97665.84;;;13.65;49.52
17209;BME280;8720;48.488;9.202;2024-03-22T01:20:54;97658.75;;;13.68;49.40
17209;BME280;8720;48.488;9.202;2024-03-22T01:23:22;97657.00;;;13.67;49.28
17209;BME280;8720;48.488;9.202;2024-03-22T01:25:48;97642.13;;;13.66;49.44
17209;BME280;8720;48.488;9.202;2024-03-22T01:28:15;97647.47;;;13.63;49.25
17209;BME280;8720;48.488;9.202;2024-03-22T01:30:44;97639.66;;;13.60;49.22
17209;BME280;8720;48.488;9.202;2024-03-22T01:33:11;97637.97;;;13.58;49.25
17209;BME280;8720;48.488;9.202;2024-03-22T01:35:38;97633.69;;;13.54;49.29
17209;BME280;8720;48.488;9.202;2024-03-22T01:38:07;97637.28;;;13.50;49.24
17209;BME280;8720;48.488;9.202;2024-03-22T01:40:33;97628.78;;;13.42;49.21
17209;BME280;8720;48.488;9.202;2024-03-22T01:43:00;97633.09;;;13.43;49.35
17209;BME280;8720;48.488;9.202;2024-03-22T01:45:32;97641.03;;;13.41;49.43
17209;BME280;8720;48.488;9.202;2024-03-22T01:48:02;97634.09;;;13.39;49.40
17209;BME280;8720;48.488;9.202;2024-03-22T01:50:30;97631.56;;;13.34;49.48
17209;BME280;8720;48.488;9.202;2024-03-22T01:52:57;97626.41;;;13.31;49.38
17209;BME280;8720;48.488;9.202;2024-03-22T01:55:25;97617.75;;;13.28;49.43
17209;BME280;8720;48.488;9.202;2024-03-22T01:57:53;97609.84;;;13.28;49.33
17209;BME280;8720;48.488;9.202;2024-03-22T02:00:22;97611.66;;;13.26;49.56
17209;BME280;8720;48.488;9.202;2024-03-22T02:02:49;97615.16;;;13.25;49.48
17209;BME280;8720;48.488;9.202;2024-03-22T02:05:18;97606.44;;;13.24;49.52
17209;BME280;8720;48.488;9.202;2024-03-22T02:07:47;97616.97;;;13.23;49.44
17209;BME280;8720;48.488;9.202;2024-03-22T02:10:15;97617.94;;;13.20;49.43
17209;BME280;8720;48.488;9.202;2024-03-22T02:12:42;97617.97;;;13.19;49.50
17209;BME280;8720;48.488;9.202;2024-03-22T02:15:09;97619.78;;;13.17;49.57
17209;BME280;8720;48.488;9.202;2024-03-22T02:17:37;97611.06;;;13.15;49.58
17209;BME280;8720;48.488;9.202;2024-03-22T02:20:04;97598.13;;;13.07;49.74
17209;BME280;8720;48.488;9.202;2024-03-22T02:22:33;97616.41;;;13.10;49.69
17209;BME280;8720;48.488;9.202;2024-03-22T02:25:01;97608.63;;;13.06;49.72
17209;BME280;8720;48.488;9.202;2024-03-22T02:27:28;97613.00;;;13.07;49.80
17209;BME280;8720;48.488;9.202;2024-03-22T02:29:54;97612.19;;;13.05;49.75
17209;BME280;8720;48.488;9.202;2024-03-22T02:32:22;97606.97;;;13.03;49.69
17209;BME280;8720;48.488;9.202;2024-03-22T02:34:48;97598.25;;;13.00;49.86
17209;BME280;8720;48.488;9.202;2024-03-22T02:37:15;97594.84;;;12.96;49.99
17209;BME280;8720;48.488;9.202;2024-03-22T02:39:41;97592.28;;;12.93;49.88
17209;BME280;8720;48.488;9.202;2024-03-22T02:42:10;97587.22;;;12.86;49.83
17209;BME280;8720;48.488;9.202;2024-03-22T02:44:36;97595.03;;;12.89;49.93
17209;BME280;8720;48.488;9.202;2024-03-22T02:47:08;97594.19;;;12.87;49.90
17209;BME280;8720;48.488;9.202;2024-03-22T02:49:38;97591.66;;;12.84;49.97
17209;BME280;8720;48.488;9.202;2024-03-22T02:52:05;97593.50;;;12.80;50.01
17209;BME280;8720;48.488;9.202;2024-03-22T02:54:32;97592.69;;;12.76;50.01
17209;BME280;8720;48.488;9.202;2024-03-22T02:56:58;97587.50;;;12.73;50.03
17209;BME280;8720;48.488;9.202;2024-03-22T02:59:29;97587.59;;;12.69;50.02
17209;BME280;8720;48.488;9.202;2024-03-22T03:01:55;97581.63;;;12.64;50.18
17209;BME280;8720;48.488;9.202;2024-03-22T03:04:23;97575.72;;;12.54;50.11
17209;BME280;8720;48.488;9.202;2024-03-22T03:06:50;97581.00;;;12.53;50.23
17209;BME280;8720;48.488;9.202;2024-03-22T03:09:17;97576.75;;;12.47;50.32
17209;BME280;8720;48.488;9.202;2024-03-22T03:11:43;97569.84;;;12.43;50.38
17209;BME280;8720;48.488;9.202;2024-03-22T03:14:10;97576.94;;;12.38;50.28
17209;BME280;8720;48.488;9.202;2024-03-22T03:16:38;97569.06;;;12.38;50.39
17209;BME280;8720;48.488;9.202;2024-03-22T03:19:05;97566.53;;;12.35;50.38
17209;BME280;8720;48.488;9.202;2024-03-22T03:21:31;97564.81;;;12.33;50.39
17209;BME280;8720;48.488;9.202;2024-03-22T03:23:59;97565.75;;;12.30;50.43
17209;BME280;8720;48.488;9.202;2024-03-22T03:26:25;97566.66;;;12.29;50.52
17209;BME280;8720;48.488;9.202;2024-03-22T03:28:53;97562.34;;;12.27;50.57
17209;BME280;8720;48.488;9.202;2024-03-22T03:31:21;97571.16;;;12.24;50.65
17209;BME280;8720;48.488;9.202;2024-03-22T03:33:49;97559.84;;;12.22;50.68
17209;BME280;8720;48.488;9.202;2024-03-22T03:36:16;97561.63;;;12.20;50.68
17209;BME280;8720;48.488;9.202;2024-03-22T03:38:43;97553.88;;;12.14;50.73
17209;BME280;8720;48.488;9.202;2024-03-22T03:41:09;97559.00;;;12.19;50.83
17209;BME280;8720;48.488;9.202;2024-03-22T03:43:37;97549.44;;;12.18;50.99
17209;BME280;8720;48.488;9.202;2024-03-22T03:46:03;97559.94;;;12.18;51.26
17209;BME280;8720;48.488;9.202;2024-03-22T03:48:31;97556.38;;;12.20;51.12
17209;BME280;8720;48.488;9.202;2024-03-22T03:50:59;97554.59;;;12.22;51.13
17209;BME280;8720;48.488;9.202;2024-03-22T03:53:29;97553.63;;;12.25;51.16
17209;BME280;8720;48.488;9.202;2024-03-22T03:55:55;97547.47;;;12.27;51.26
17209;BME280;8720;48.488;9.202;2024-03-22T03:58:23;97548.34;;;12.28;51.12
17209;BME280;8720;48.488;9.202;2024-03-22T04:00:50;97540.47;;;12.28;51.20
17209;BME280;8720;48.488;9.202;2024-03-22T04:03:17;97540.44;;;12.29;51.21
17209;BME280;8720;48.488;9.202;2024-03-22T04:05:43;97536.94;;;12.29;51.10
17209;BME280;8720;48.488;9.202;2024-03-22T04:08:12;97541.34;;;12.27;51.11
17209;BME280;8720;48.488;9.202;2024-03-22T04:10:38;97533.59;;;12.22;51.34
17209;BME280;8720;48.488;9.202;2024-03-22T04:13:06;97535.31;;;12.23;51.18
17209;BME280;8720;48.488;9.202;2024-03-22T04:15:34;97540.59;;;12.22;51.14
17209;BME280;8720;48.488;9.202;2024-03-22T04:18:02;97536.31;;;12.18;51.21
17209;BME280;8720;48.488;9.202;2024-03-22T04:20:28;97540.78;;;12.14;51.17
17209;BME280;8720;48.488;9.202;2024-03-22T04:22:55;97546.97;;;12.10;51.17
17209;BME280;8720;48.488;9.202;2024-03-22T04:25:23;97542.69;;;12.06;51.08
17209;BME280;8720;48.488;9.202;2024-03-22T04:27:50;97541.94;;;12.01;51.35
17209;BME280;8720;48.488;9.202;2024-03-22T04:30:16;97544.59;;;11.98;51.28
17209;BME280;8720;48.488;9.202;2024-03-22T04:32:46;97549.06;;;11.95;51.32
17209;BME280;8720;48.488;9.202;2024-03-22T04:35:12;97544.72;;;11.92;51.32
17209;BME280;8720;48.488;9.202;2024-03-22T04:37:40;97550.94;;;11.90;51.42
17209;BME280;8720;48.488;9.202;2024-03-22T04:40:08;97542.22;;;11.86;51.29
17209;BME280;8720;48.488;9.202;2024-03-22T04:42:38;97547.59;;;11.81;51.41
17209;BME280;8720;48.488;9.202;2024-03-22T04:45:06;97549.38;;;11.79;51.40
17209;BME280;8720;48.488;9.202;2024-03-22T04:47:32;97549.44;;;11.76;51.48
17209;BME280;8720;48.488;9.202;2024-03-22T04:49:59;97544.25;;;11.73;51.62
17209;BME280;8720;48.488;9.202;2024-03-22T04:52:26;97544.31;;;11.70;51.72
17209;BME280;8720;48.488;9.202;2024-03-22T04:54:53;97546.13;;;11.68;51.70
17209;BME280;8720;48.488;9.202;2024-03-22T04:57:19;97547.91;;;11.66;51.84
17209;BME280;8720;48.488;9.202;2024-03-22T04:59:48;97550.50;;;11.68;51.82
17209;BME280;8720;48.488;9.202;2024-03-22T05:02:14;97544.38;;;11.67;52.06
17209;BME280;8720;48.488;9.202;2024-03-22T05:04:41;97548.69;;;11.70;52.05
17209;BME280;8720;48.488;9.202;2024-03-22T05:07:08;97559.16;;;11.71;52.05
17209;BME280;8720;48.488;9.202;2024-03-22T05:09:35;97557.31;;;11.75;52.19
17209;BME280;8720;48.488;9.202;2024-03-22T05:12:01;97559.00;;;11.79;52.09
17209;BME280;8720;48.488;9.202;2024-03-22T05:14:29;97562.44;;;11.81;52.11
17209;BME280;8720;48.488;9.202;2024-03-22T05:16:56;97563.25;;;11.84;52.23
17209;BME280;8720;48.488;9.202;2024-03-22T05:19:24;97567.56;;;11.87;52.16
17209;BME280;8720;48.488;9.202;2024-03-22T05:21:50;97566.66;;;11.90;52.20
17209;BME280;8720;48.488;9.202;2024-03-22T05:24:17;97560.47;;;11.92;52.25
17209;BME280;8720;48.488;9.202;2024-03-22T05:26:44;97554.34;;;11.93;52.43
17209;BME280;8720;48.488;9.202;2024-03-22T05:29:11;97553.44;;;11.94;52.39
17209;BME280;8720;48.488;9.202;2024-03-22T05:31:48;97551.69;;;11.95;52.41
17209;BME280;8720;48.488;9.202;2024-03-22T05:34:19;97546.41;;;11.96;52.33
17209;BME280;8720;48.488;9.202;2024-03-22T05:36:46;97548.06;;;12.00;52.19
17209;BME280;8720;48.488;9.202;2024-03-22T05:39:13;97541.84;;;12.04;52.34
17209;BME280;8720;48.488;9.202;2024-03-22T05:41:39;97540.81;;;12.13;52.82
17209;BME280;8720;48.488;9.202;2024-03-22T05:44:08;97531.06;;;12.18;52.63
17209;BME280;8720;48.488;9.202;2024-03-22T05:46:34;97540.56;;;12.23;52.40
17209;BME280;8720;48.488;9.202;2024-03-22T05:49:01;97539.56;;;12.29;52.50
17209;BME280;8720;48.488;9.202;2024-03-22T05:51:30;97542.00;;;12.36;52.56
17209;BME280;8720;48.488;9.202;2024-03-22T05:53:57;97538.31;;;12.45;52.37
17209;BME280;8720;48.488;9.202;2024-03-22T05:56:24;97534.59;;;12.53;52.35
17209;BME280;8720;48.488;9.202;2024-03-22T05:58:51;97530.88;;;12.63;52.29
17209;BME280;8720;48.488;9.202;2024-03-22T06:01:17;97529.75;;;12.73;52.16
17209;BME280;8720;48.488;9.202;2024-03-22T06:03:45;97533.88;;;12.84;52.28
17209;BME280;8720;48.488;9.202;2024-03-22T06:06:11;97522.31;;;12.91;52.13
17209;BME280;8720;48.488;9.202;2024-03-22T06:08:40;97517.69;;;13.00;51.93
17209;BME280;8720;48.488;9.202;2024-03-22T06:11:09;97516.69;;;13.07;51.92
17209;BME280;8720;48.488;9.202;2024-03-22T06:13:37;97513.72;;;13.19;51.92
17209;BME280;8720;48.488;9.202;2024-03-22T06:16:04;97513.44;;;13.30;52.00
17209;BME280;8720;48.488;9.202;2024-03-22T06:18:32;97506.19;;;13.39;51.97
17209;BME280;8720;48.488;9.202;2024-03-22T06:20:58;97504.97;;;13.51;51.62
17209;BME280;8720;48.488;9.202;2024-03-22T06:23:26;97505.53;;;13.62;51.57
17209;BME280;8720;48.488;9.202;2024-03-22T06:25:54;97505.25;;;13.71;51.54
17209;BME280;8720;48.488;9.202;2024-03-22T06:28:22;97498.03;;;13.79;51.39
17209;BME280;8720;48.488;9.202;2024-03-22T06:30:49;97500.44;;;13.87;51.33
17209;BME280;8720;48.488;9.202;2024-03-22T06:33:16;97496.56;;;13.98;50.98
17209;BME280;8720;48.488;9.202;2024-03-22T06:35:43;97499.78;;;14.08;51.04
17209;BME280;8720;48.488;9.202;2024-03-22T06:38:10;97478.50;;;14.44;50.74
17209;BME280;8720;48.488;9.202;2024-03-22T06:40:37;97491.13;;;14.61;50.84
17209;BME280;8720;48.488;9.202;2024-03-22T06:43:06;97483.28;;;14.86;50.76
17209;BME280;8720;48.488;9.202;2024-03-22T06:45:32;97488.22;;;15.21;50.52
17209;BME280;8720;48.488;9.202;2024-03-22T06:48:00;97489.66;;;15.56;50.28
17209;BME280;8720;48.488;9.202;2024-03-22T06:50:26;97488.22;;;15.93;49.75
17209;BME280;8720;48.488;9.202;2024-03-22T06:52:54;97491.50;;;16.45;49.43
17209;BME280;8720;48.488;9.202;2024-03-22T06:55:20;97493.25;;;17.09;49.31
17209;BME280;8720;48.488;9.202;2024-03-22T06:57:49;97494.69;;;17.78;48.16
17209;BME280;8720;48.488;9.202;2024-03-22T07:00:18;97487.25;;;18.43;47.31
17209;BME280;8720;48.488;9.202;2024-03-22T07:02:46;97480.75;;;19.03;46.84
17209;BME280;8720;48.488;9.202;2024-03-22T07:05:12;97480.56;;;19.57;46.14
17209;BME280;8720;48.488;9.202;2024-03-22T07:07:40;97480.13;;;19.99;45.16
17209;BME280;8720;48.488;9.202;2024-03-22T07:10:07;97476.69;;;20.30;44.69
17209;BME280;8720;48.488;9.202;2024-03-22T07:12:34;97482.59;;;20.50;44.37
17209;BME280;8720;48.488;9.202;2024-03-22T07:15:03;97480.19;;;20.61;43.53
17209;BME280;8720;48.488;9.202;2024-03-22T07:17:32;97472.47;;;20.72;43.32
17209;BME280;8720;48.488;9.202;2024-03-22T07:19:58;97471.94;;;20.81;42.68
17209;BME280;8720;48.488;9.202;2024-03-22T07:22:25;97473.22;;;20.90;42.42
17209;BME280;8720;48.488;9.202;2024-03-22T07:24:52;97466.50;;;20.99;42.60
17209;BME280;8720;48.488;9.202;2024-03-22T07:27:20;97477.59;;;21.07;42.10
17209;BME280;8720;48.488;9.202;2024-03-22T07:29:46;97465.56;;;21.15;41.99
17209;BME280;8720;48.488;9.202;2024-03-22T07:32:14;97467.41;;;21.29;42.10
17209;BME280;8720;48.488;9.202;2024-03-22T07:34:42;97465.63;;;21.43;41.85
17209;BME280;8720;48.488;9.202;2024-03-22T07:37:12;97471.47;;;21.64;41.75
17209;BME280;8720;48.488;9.202;2024-03-22T07:39:39;97466.38;;;21.89;41.11
17209;BME280;8720;48.488;9.202;2024-03-22T07:42:06;97464.75;;;22.15;40.81
17209;BME280;8720;48.488;9.202;2024-03-22T07:44:32;97463.88;;;22.42;40.87
17209;BME280;8720;48.488;9.202;2024-03-22T07:47:00;97456.13;;;22.66;40.34
17209;BME280;8720;48.488;9.202;2024-03-22T07:49:26;97456.63;;;22.85;40.22
17209;BME280;8720;48.488;9.202;2024-03-22T07:51:55;97452.09;;;23.00;39.58
17209;BME280;8720;48.488;9.202;2024-03-22T07:54:21;97456.69;;;23.10;39.16
17209;BME280;8720;48.488;9.202;2024-03-22T07:56:49;97450.84;;;23.18;38.96
17209;BME280;8720;48.488;9.202;2024-03-22T07:59:15;97445.44;;;23.19;38.65
17209;BME280;8720;48.488;9.202;2024-03-22T08:01:42;97441.25;;;23.15;39.11
17209;BME280;8720;48.488;9.202;2024-03-22T08:04:09;97444.34;;;23.09;38.54
17209;BME280;8720;48.488;9.202;2024-03-22T08:06:36;97447.41;;;23.03;38.81
17209;BME280;8720;48.488;9.202;2024-03-22T08:09:04;97440.13;;;22.93;38.67
17209;BME280;8720;48.488;9.202;2024-03-22T08:11:31;97447.78;;;22.85;38.86
17209;BME280;8720;48.488;9.202;2024-03-22T08:13:58;97445.69;;;22.76;39.52
17209;BME280;8720;48.488;9.202;2024-03-22T08:16:29;97442.13;;;22.63;38.81
17209;BME280;8720;48.488;9.202;2024-03-22T08:18:56;97428.78;;;22.48;39.02
17209;BME280;8720;48.488;9.202;2024-03-22T08:21:24;97424.94;;;22.26;39.20
17209;BME280;8720;48.488;9.202;2024-03-22T08:23:50;97435.91;;;22.21;39.57
17209;BME280;8720;48.488;9.202;2024-03-22T08:26:19;97447.13;;;22.12;39.25
17209;BME280;8720;48.488;9.202;2024-03-22T08:28:47;97430.13;;;22.01;39.45
17209;BME280;8720;48.488;9.202;2024-03-22T08:31:15;97434.13;;;21.94;39.27
17209;BME280;8720;48.488;9.202;2024-03-22T08:33:42;97429.66;;;21.80;39.81
17209;BME280;8720;48.488;9.202;2024-03-22T08:36:10;97437.66;;;21.80;40.18
17209;BME280;8720;48.488;9.202;2024-03-22T08:38:36;97435.31;;;21.74;39.50
17209;BME280;8720;48.488;9.202;2024-03-22T08:41:04;97435.81;;;21.66;39.78
17209;BME280;8720;48.488;9.202;2024-03-22T08:43:32;97430.56;;;21.51;39.93
17209;BME280;8720;48.488;9.202;2024-03-22T08:45:59;97430.53;;;21.37;39.82
17209;BME280;8720;48.488;9.202;2024-03-22T08:48:26;97433.06;;;21.24;39.94
17209;BME280;8720;48.488;9.202;2024-03-22T08:50:53;97432.66;;;21.16;40.34
17209;BME280;8720;48.488;9.202;2024-03-22T08:53:20;97421.44;;;21.11;40.43
17209;BME280;8720;48.488;9.202;2024-03-22T08:55:48;97412.50;;;21.12;40.58
17209;BME280;8720;48.488;9.202;2024-03-22T08:58:15;97399.47;;;21.08;40.69
17209;BME280;8720;48.488;9.202;2024-03-22T09:00:45;97405.13;;;21.17;40.32
17209;BME280;8720;48.488;9.202;2024-03-22T09:03:11;97394.38;;;21.19;40.59
17209;BME280;8720;48.488;9.202;2024-03-22T09:05:40;97395.81;;;21.24;40.45
17209;BME280;8720;48.488;9.202;2024-03-22T09:08:07;97393.63;;;21.31;40.43
17209;BME280;8720;48.488;9.202;2024-03-22T09:10:35;97392.31;;;21.38;40.44
17209;BME280;8720;48.488;9.202;2024-03-22T09:13:02;97392.88;;;21.43;40.65
17209;BME280;8720;48.488;9.202;2024-03-22T09:15:29;97394.31;;;21.48;40.13
17209;BME280;8720;48.488;9.202;2024-03-22T09:17:58;97373.22;;;21.45;40.10
17209;BME280;8720;48.488;9.202;2024-03-22T09:20:26;97381.38;;;21.56;40.20
17209;BME280;8720;48.488;9.202;2024-03-22T09:22:53;97383.00;;;21.59;40.19
17209;BME280;8720;48.488;9.202;2024-03-22T09:25:20;97355.44;;;21.46;39.92
17209;BME280;8720;48.488;9.202;2024-03-22T09:27:47;97374.00;;;21.61;39.40
17209;BME280;8720;48.488;9.202;2024-03-22T09:30:15;97369.50;;;21.62;39.23
17209;BME280;8720;48.488;9.202;2024-03-22T09:32:41;97375.69;;;21.62;39.62
17209;BME280;8720;48.488;9.202;2024-03-22T09:35:10;97363.91;;;21.66;39.62
17209;BME280;8720;48.488;9.202;2024-03-22T09:37:40;97357.22;;;21.73;38.96
17209;BME280;8720;48.488;9.202;2024-03-22T09:40:09;97355.97;;;21.79;39.31
17209;BME280;8720;48.488;9.202;2024-03-22T09:42:38;97352.41;;;21.80;38.82
17209;BME280;8720;48.488;9.202;2024-03-22T09:45:09;97350.84;;;21.76;38.93
17209;BME280;8720;48.488;9.202;2024-03-22T09:47:37;97344.13;;;21.85;39.47
17209;BME280;8720;48.488;9.202;2024-03-22T09:50:07;97334.13;;;21.88;39.19
17209;BME280;8720;48.488;9.202;2024-03-22T09:52:38;97338.88;;;21.97;38.77
17209;BME280;8720;48.488;9.202;2024-03-22T09:55:07;97328.84;;;22.01;38.67
17209;BME280;8720;48.488;9.202;2024-03-22T09:57:38;97315.84;;;21.96;38.38
17209;BME280;8720;48.488;9.202;2024-03-22T10:00:08;97321.63;;;22.03;38.28
17209;BME280;8720;48.488;9.202;2024-03-22T10:02:41;97323.91;;;22.09;38.38
17209;BME280;8720;48.488;9.202;2024-03-22T10:05:10;97322.84;;;22.11;38.14
17209;BME280;8720;48.488;9.202;2024-03-22T10:07:39;97310.94;;;22.17;38.60
17209;BME280;8720;48.488;9.202;2024-03-22T10:10:07;97305.31;;;22.21;38.08
17209;BME280;8720;48.488;9.202;2024-03-22T10:12:34;97305.34;;;22.34;37.89
17209;BME280;8720;48.488;9.202;2024-03-22T10:15:01;97312.81;;;22.41;37.90
17209;BME280;8720;48.488;9.202;2024-03-22T10:17:28;97301.31;;;22.41;37.52
17209;BME280;8720;48.488;9.202;2024-03-22T10:19:56;97300.78;;;22.48;37.22
17209;BME280;8720;48.488;9.202;2024-03-22T10:22:23;97294.22;;;22.54;37.25
17209;BME280;8720;48.488;9.202;2024-03-22T10:24:52;97289.22;;;22.62;37.65
17209;BME280;8720;48.488;9.202;2024-03-22T10:27:20;97287.88;;;22.69;37.37
17209;BME280;8720;48.488;9.202;2024-03-22T10:29:48;97285.84;;;22.85;37.33
17209;BME280;8720;48.488;9.202;2024-03-22T10:32:16;97286.81;;;22.97;37.08
17209;BME280;8720;48.488;9.202;2024-03-22T10:34:46;97285.88;;;23.10;36.78
17209;BME280;8720;48.488;9.202;2024-03-22T10:37:15;97272.84;;;23.18;36.07
17209;BME280;8720;48.488;9.202;2024-03-22T10:39:43;97278.81;;;23.22;35.85
17209;BME280;8720;48.488;9.202;2024-03-22T10:42:11;97272.22;;;23.27;35.60
17209;BME280;8720;48.488;9.202;2024-03-22T10:44:41;97263.69;;;23.35;35.63
17209;BME280;8720;48.488;9.202;2024-03-22T10:47:12;97247.44;;;23.38;35.43
17209;BME280;8720;48.488;9.202;2024-03-22T10:49:42;97254.47;;;23.52;35.72
17209;BME280;8720;48.488;9.202;2024-03-22T10:52:11;97251.38;;;23.58;35.57
17209;BME280;8720;48.488;9.202;2024-03-22T10:54:44;97244.97;;;23.60;35.17
17209;BME280;8720;48.488;9.202;2024-03-22T10:57:16;97238.41;;;23.64;35.07
17209;BME280;8720;48.488;9.202;2024-03-22T10:59:46;97232.63;;;23.70;34.83
17209;BME280;8720;48.488;9.202;2024-03-22T11:02:13;97232.28;;;23.75;34.63
17209;BME280;8720;48.488;9.202;2024-03-22T11:04:40;97224.69;;;23.81;34.75
17209;BME280;8720;48.488;9.202;2024-03-22T11:07:07;97219.84;;;23.86;34.26
17209;BME280;8720;48.488;9.202;2024-03-22T11:09:35;97220.25;;;23.93;34.49
17209;BME280;8720;48.488;9.202;2024-03-22T11:12:04;97208.38;;;23.97;34.17
17209;BME280;8720;48.488;9.202;2024-03-22T11:14:33;97209.34;;;23.96;33.55
17209;BME280;8720;48.488;9.202;2024-03-22T11:16:59;97202.50;;;23.92;33.31
17209;BME280;8720;48.488;9.202;2024-03-22T11:19:27;97197.91;;;23.94;33.91
17209;BME280;8720;48.488;9.202;2024-03-22T11:21:54;97193.41;;;23.94;33.35
17209;BME280;8720;48.488;9.202;2024-03-22T11:24:22;97204.47;;;24.01;33.72
17209;BME280;8720;48.488;9.202;2024-03-22T11:26:48;97191.88;;;24.03;33.30
17209;BME280;8720;48.488;9.202;2024-03-22T11:29:16;97192.63;;;24.05;33.21
17209;BME280;8720;48.488;9.202;2024-03-22T11:31:44;97191.97;;;24.01;33.14
17209;BME280;8720;48.488;9.202;2024-03-22T11:34:11;97185.78;;;24.01;32.91
17209;BME280;8720;48.488;9.202;2024-03-22T11:36:37;97186.63;;;24.01;32.83
17209;BME280;8720;48.488;9.202;2024-03-22T11:39:05;97180.97;;;24.06;32.75
17209;BME280;8720;48.488;9.202;2024-03-22T11:41:32;97179.53;;;24.13;32.69
17209;BME280;8720;48.488;9.202;2024-03-22T11:44:01;97169.00;;;24.22;32.38
17209;BME280;8720;48.488;9.202;2024-03-22T11:46:28;97158.84;;;24.27;32.11
17209;BME280;8720;48.488;9.202;2024-03-22T11:48:58;97158.59;;;24.30;32.19
17209;BME280;8720;48.488;9.202;2024-03-22T11:51:25;97153.84;;;24.34;32.07
17209;BME280;8720;48.488;9.202;2024-03-22T11:53:53;97146.34;;;24.39;32.29
17209;BME280;8720;48.488;9.202;2024-03-22T11:56:24;97148.78;;;24.42;31.88
17209;BME280;8720;48.488;9.202;2024-03-22T11:58:58;97147.56;;;24.46;31.93
17209;BME280;8720;48.488;9.202;2024-03-22T12:01:25;97141.97;;;24.49;31.94
17209;BME280;8720;48.488;9.202;2024-03-22T12:03:54;97141.97;;;24.49;31.47
17209;BME280;8720;48.488;9.202;2024-03-22T12:06:22;97124.81;;;24.52;31.37
17209;BME280;8720;48.488;9.202;2024-03-22T12:08:49;97136.38;;;24.52;31.59
17209;BME280;8720;48.488;9.202;2024-03-22T12:11:17;97124.69;;;24.53;31.75
17209;BME280;8720;48.488;9.202;2024-03-22T12:13:44;97120.09;;;24.55;31.34
17209;BME280;8720;48.488;9.202;2024-03-22T12:16:11;97121.06;;;24.54;31.06
17209;BME280;8720;48.488;9.202;2024-03-22T12:18:38;97113.78;;;24.56;31.24
17209;BME280;8720;48.488;9.202;2024-03-22T12:21:05;97106.38;;;24.60;31.18
17209;BME280;8720;48.488;9.202;2024-03-22T12:23:34;97103.34;;;24.64;31.39
17209;BME280;8720;48.488;9.202;2024-03-22T12:26:01;97096.03;;;24.66;31.27
17209;BME280;8720;48.488;9.202;2024-03-22T12:28:29;97090.22;;;24.72;31.44
17209;BME280;8720;48.488;9.202;2024-03-22T12:30:55;97074.06;;;24.74;31.11
17209;BME280;8720;48.488;9.202;2024-03-22T12:33:22;97068.91;;;24.82;30.70
17209;BME280;8720;48.488;9.202;2024-03-22T12:35:49;97069.28;;;24.88;30.25
17209;BME280;8720;48.488;9.202;2024-03-22T12:38:16;97065.53;;;24.91;30.28
17209;BME280;8720;48.488;9.202;2024-03-22T12:40:45;97057.50;;;24.91;29.91
17209;BME280;8720;48.488;9.202;2024-03-22T12:43:12;97056.63;;;24.90;30.10
17209;BME280;8720;48.488;9.202;2024-03-22T12:45:39;97045.06;;;24.90;30.01
17209;BME280;8720;48.488;9.202;2024-03-22T12:48:06;97052.38;;;24.88;29.88
17209;BME280;8720;48.488;9.202;2024-03-22T12:50:33;97042.53;;;24.88;30.04
17209;BME280;8720;48.488;9.202;2024-03-22T12:53:01;97036.94;;;24.91;29.91
17209;BME280;8720;48.488;9.202;2024-03-22T12:55:28;97037.41;;;24.96;30.09
17209;BME280;8720;48.488;9.202;2024-03-22T12:57:58;97035.31;;;25.00;30.00
17209;BME280;8720;48.488;9.202;2024-03-22T13:00:25;97030.56;;;25.03;29.42
17209;BME280;8720;48.488;9.202;2024-03-22T13:02:52;97026.44;;;25.10;29.51
17209;BME280;8720;48.488;9.202;2024-03-22T13:05:19;97016.31;;;25.14;29.57
17209;BME280;8720;48.488;9.202;2024-03-22T13:07:47;97007.06;;;25.18;29.46
17209;BME280;8720;48.488;9.202;2024-03-22T13:10:14;97017.88;;;25.28;29.30
17209;BME280;8720;48.488;9.202;2024-03-22T13:12:41;96999.34;;;25.24;28.87